Time;durP1;ratioP1;P1;durP2;ratioP2;P2;SDS_P1;SDS_P2;PMS_P1;PMS_P2;Temp;Humidity;BMP_temperature;BMP_pressure;BME280_temperature;BME280_humidity;BME280_pressure;Samples;Min_cycle;Max_cycle;Signal;HPM_P1;HPM_P2
2023/12/05 00:00:43;;;;;;;40.03;21.90;;;;;;;-3.90;74.69;100754.19;5110372;28;20199;-60
2023/12/05 00:03:12;;;;;;;38.13;20.43;;;;;;;-3.89;74.87;100753.41;5111517;28;20207;-61
2023/12/05 00:05:41;;;;;;;39.73;21.90;;;;;;;-3.93;74.61;100754.00;5122357;28;20539;-61
2023/12/05 00:08:09;;;;;;;40.40;21.37;;;;;;;-4.03;74.77;100749.22;5110874;28;20316;-63
2023/12/05 00:10:37;;;;;;;41.80;22.87;;;;;;;-4.08;75.21;100755.66;5111612;28;20222;-62
2023/12/05 00:13:07;;;;;;;41.57;21.23;;;;;;;-4.14;74.72;100760.31;5122939;28;20203;-62
2023/12/05 00:15:36;;;;;;;42.53;21.90;;;;;;;-4.19;75.44;100756.66;5114984;28;20195;-66
2023/12/05 00:18:04;;;;;;;41.40;21.20;;;;;;;-4.25;75.32;100749.63;5117325;28;20593;-62
2023/12/05 00:20:33;;;;;;;39.90;20.83;;;;;;;-4.26;75.46;100752.06;5109124;28;20730;-61
2023/12/05 00:23:01;;;;;;;40.10;21.40;;;;;;;-4.27;75.58;100747.78;5113353;28;20654;-61
2023/12/05 00:25:30;;;;;;;39.80;20.60;;;;;;;-4.26;75.83;100750.41;5111945;27;20208;-61
2023/12/05 00:27:58;;;;;;;42.97;20.83;;;;;;;-4.27;76.15;100743.66;5111639;27;20208;-61
2023/12/05 00:30:26;;;;;;;40.40;20.43;;;;;;;-4.27;76.42;100742.75;5121252;27;20224;-62
2023/12/05 00:32:54;;;;;;;45.20;21.73;;;;;;;-4.28;75.98;100736.84;5115220;27;20199;-63
2023/12/05 00:35:22;;;;;;;34.87;19.27;;;;;;;-4.34;75.88;100743.16;5116342;27;20204;-60
2023/12/05 00:37:51;;;;;;;39.93;21.43;;;;;;;-4.36;76.03;100748.13;5122855;27;20649;-61
2023/12/05 00:40:19;;;;;;;39.27;20.23;;;;;;;-4.37;76.36;100732.16;5121454;27;20193;-61
2023/12/05 00:42:47;;;;;;;38.07;20.07;;;;;;;-4.33;76.52;100737.38;5117510;27;20208;-61
2023/12/05 00:45:15;;;;;;;40.57;21.13;;;;;;;-4.33;76.59;100739.88;5116952;27;20207;-60
2023/12/05 00:47:43;;;;;;;39.93;19.97;;;;;;;-4.37;76.70;100729.66;5117503;27;20540;-60
2023/12/05 00:50:11;;;;;;;37.47;18.93;;;;;;;-4.39;77.25;100733.69;5106942;27;20208;-61
2023/12/05 00:52:39;;;;;;;35.37;19.73;;;;;;;-4.38;77.32;100740.50;5117218;27;20204;-60
2023/12/05 00:55:08;;;;;;;37.97;19.23;;;;;;;-4.34;77.64;100735.63;5123906;27;20219;-62
2023/12/05 00:57:36;;;;;;;42.00;20.87;;;;;;;-4.35;77.18;100734.75;5119565;27;20208;-62
2023/12/05 01:00:09;;;;;;;34.20;19.27;;;;;;;-4.35;77.33;100734.75;5114729;28;20502;-64
2023/12/05 01:02:37;;;;;;;39.90;20.77;;;;;;;-4.34;77.25;100733.09;5123729;27;20573;-65
2023/12/05 01:05:08;;;;;;;41.37;19.30;;;;;;;-4.40;76.85;100729.47;5127260;27;20204;-63
2023/12/05 01:07:36;;;;;;;33.67;19.17;;;;;;;-4.47;77.01;100729.88;5109827;27;20663;-62
2023/12/05 01:10:05;;;;;;;40.23;19.37;;;;;;;-4.54;77.78;100735.31;5117046;27;20692;-62
2023/12/05 01:12:34;;;;;;;40.33;20.03;;;;;;;-4.56;77.82;100729.34;5105504;27;20706;-63
2023/12/05 01:15:03;;;;;;;35.53;19.40;;;;;;;-4.57;77.64;100724.19;5111104;27;20199;-67
2023/12/05 01:17:31;;;;;;;36.23;19.00;;;;;;;-4.58;78.40;100720.81;5120865;27;20657;-63
2023/12/05 01:19:59;;;;;;;37.50;19.47;;;;;;;-4.57;77.74;100715.00;5114759;27;20192;-62
2023/12/05 01:22:26;;;;;;;35.10;19.20;;;;;;;-4.56;78.26;100713.38;5117101;27;20204;-63
2023/12/05 01:24:55;;;;;;;36.90;19.47;;;;;;;-4.52;78.30;100710.28;5107606;27;20234;-64
2023/12/05 01:27:23;;;;;;;34.23;17.40;;;;;;;-4.50;77.67;100706.19;5103835;27;20723;-62
2023/12/05 01:29:52;;;;;;;36.47;19.37;;;;;;;-4.52;78.25;100706.09;5115498;27;20208;-65
2023/12/05 01:32:20;;;;;;;35.23;17.80;;;;;;;-4.58;78.11;100698.19;5123434;27;20206;-64
2023/12/05 01:34:48;;;;;;;31.80;18.63;;;;;;;-4.59;78.22;100698.97;5118543;27;20205;-63
2023/12/05 01:37:16;;;;;;;36.77;19.67;;;;;;;-4.62;78.36;100691.25;5118883;27;20198;-63
2023/12/05 01:39:44;;;;;;;38.07;18.60;;;;;;;-4.63;77.81;100690.38;5129030;27;20199;-63
2023/12/05 01:42:12;;;;;;;33.10;18.30;;;;;;;-4.68;78.47;100683.31;5117674;27;20626;-64
2023/12/05 01:44:39;;;;;;;37.80;18.83;;;;;;;-4.74;78.72;100680.47;5116303;27;20204;-64
2023/12/05 01:47:09;;;;;;;37.63;19.30;;;;;;;-4.70;79.29;100677.38;5112172;27;20655;-64
2023/12/05 01:49:38;;;;;;;37.40;18.60;;;;;;;-4.71;78.58;100673.97;5115436;27;20284;-63
2023/12/05 01:52:06;;;;;;;36.80;19.17;;;;;;;-4.89;78.80;100683.81;5114615;27;20224;-62
2023/12/05 01:54:34;;;;;;;40.80;20.87;;;;;;;-4.99;79.16;100686.53;5111750;27;20204;-63
2023/12/05 01:57:03;;;;;;;35.90;19.70;;;;;;;-4.92;79.97;100683.63;5118523;27;20539;-64
2023/12/05 01:59:31;;;;;;;35.20;18.47;;;;;;;-4.79;80.10;100674.28;5121448;27;20557;-63
2023/12/05 02:01:59;;;;;;;33.83;17.97;;;;;;;-4.72;79.32;100666.34;5113439;27;20252;-62
2023/12/05 02:04:30;;;;;;;36.00;18.03;;;;;;;-4.64;78.75;100671.06;5113081;27;20282;-66
2023/12/05 02:07:00;;;;;;;32.27;17.20;;;;;;;-4.65;78.47;100668.44;5115571;27;20203;-63
2023/12/05 02:09:28;;;;;;;33.47;17.30;;;;;;;-4.65;79.25;100666.78;5119704;27;20210;-66
2023/12/05 02:11:56;;;;;;;35.23;17.97;;;;;;;-4.59;78.45;100663.78;5106281;27;20205;-65
2023/12/05 02:14:24;;;;;;;32.90;17.93;;;;;;;-4.59;78.71;100657.88;5114780;27;20288;-66
2023/12/05 02:16:58;;;;;;;29.07;14.57;;;;;;;-4.61;78.39;100657.78;5108752;27;20744;-66
2023/12/05 02:19:53;;;;;;;34.47;17.27;;;;;;;-4.67;78.51;100665.84;5112696;27;20271;-65
2023/12/05 02:23:13;;;;;;;35.23;17.57;;;;;;;-4.82;78.99;100654.00;5128013;27;20196;-65
2023/12/05 02:25:54;;;;;;;34.33;14.87;;;;;;;-4.97;79.38;100657.34;5071399;28;20659;-66
2023/12/05 02:28:25;;;;;;;30.13;15.57;;;;;;;-5.04;79.90;100657.75;5115114;27;20663;-65
2023/12/05 02:30:53;;;;;;;35.53;18.77;;;;;;;-4.98;80.03;100659.75;5097734;28;20311;-64
2023/12/05 02:33:22;;;;;;;35.13;17.87;;;;;;;-4.92;80.37;100653.47;5112735;27;20204;-65
2023/12/05 02:35:58;;;;;;;38.97;16.97;;;;;;;-4.86;79.80;100651.31;5113384;27;20754;-66
2023/12/05 02:38:35;;;;;;;29.83;16.63;;;;;;;-4.75;79.43;100661.13;5114051;27;20217;-66
2023/12/05 02:41:18;;;;;;;31.17;15.10;;;;;;;-4.67;79.66;100659.94;5115207;27;20545;-66
2023/12/05 02:43:54;;;;;;;28.97;17.53;;;;;;;-4.59;78.94;100656.22;5119278;27;20203;-66
2023/12/05 02:46:22;;;;;;;28.93;15.37;;;;;;;-4.54;78.46;100661.53;5116304;27;20713;-66
2023/12/05 02:48:51;;;;;;;28.27;15.43;;;;;;;-4.57;78.14;100658.81;5110581;27;20227;-66
2023/12/05 02:51:20;;;;;;;31.10;17.13;;;;;;;-4.53;78.24;100659.09;5107736;27;20273;-65
2023/12/05 02:53:48;;;;;;;29.50;15.67;;;;;;;-4.44;78.13;100658.78;5113685;27;20279;-66
2023/12/05 02:56:18;;;;;;;33.43;16.83;;;;;;;-4.39;77.85;100655.72;5126461;27;20581;-66
2023/12/05 02:58:47;;;;;;;29.03;16.50;;;;;;;-4.32;77.63;100658.59;5110780;27;20212;-64
2023/12/05 03:01:15;;;;;;;29.57;16.30;;;;;;;-4.30;76.90;100657.06;5108936;27;20208;-66
2023/12/05 03:03:43;;;;;;;28.87;15.80;;;;;;;-4.31;77.04;100656.16;5115360;27;20736;-66
2023/12/05 03:06:11;;;;;;;30.50;15.90;;;;;;;-4.31;76.40;100660.34;5123602;27;20725;-66
2023/12/05 03:08:39;;;;;;;28.73;16.20;;;;;;;-4.30;76.62;100657.06;5119818;27;20252;-67
2023/12/05 03:11:07;;;;;;;30.07;16.80;;;;;;;-4.27;76.87;100658.09;5102785;28;20671;-65
2023/12/05 03:13:39;;;;;;;32.43;16.33;;;;;;;-4.25;76.77;100648.97;5117875;27;20211;-65
2023/12/05 03:16:09;;;;;;;30.70;15.67;;;;;;;-4.22;76.87;100653.34;5115338;27;20243;-65
2023/12/05 03:18:37;;;;;;;32.33;15.30;;;;;;;-4.28;76.37;100656.34;5110312;27;20585;-65
2023/12/05 03:21:06;;;;;;;30.83;15.47;;;;;;;-4.32;76.22;100656.97;5110524;27;20711;-61
2023/12/05 03:23:34;;;;;;;26.07;15.63;;;;;;;-4.37;76.11;100645.78;5120098;27;20307;-60
2023/12/05 03:26:02;;;;;;;28.13;16.03;;;;;;;-4.42;76.39;100657.19;5113995;27;20210;-63
2023/12/05 03:28:30;;;;;;;29.80;16.23;;;;;;;-4.47;76.92;100653.56;5115789;27;20199;-63
2023/12/05 03:30:58;;;;;;;32.80;17.63;;;;;;;-4.54;77.20;100642.28;5108273;27;20262;-61
2023/12/05 03:33:27;;;;;;;32.77;18.00;;;;;;;-4.53;77.58;100648.16;5115079;27;20201;-61
2023/12/05 03:35:55;;;;;;;31.87;16.83;;;;;;;-4.62;76.83;100638.44;5117267;27;20621;-61
2023/12/05 03:38:22;;;;;;;29.47;15.50;;;;;;;-4.73;76.75;100640.31;5119334;28;20570;-63
2023/12/05 03:40:50;;;;;;;31.87;16.90;;;;;;;-4.85;77.49;100647.16;5111531;28;20716;-61
2023/12/05 03:43:18;;;;;;;33.37;16.73;;;;;;;-4.93;77.87;100640.81;5113440;28;20196;-64
2023/12/05 03:45:46;;;;;;;33.23;17.60;;;;;;;-4.94;78.19;100641.56;5124214;28;20256;-61
2023/12/05 03:48:14;;;;;;;33.27;17.07;;;;;;;-4.91;78.16;100634.22;5126768;28;20570;-60
2023/12/05 03:50:43;;;;;;;34.43;17.10;;;;;;;-4.91;77.80;100640.09;5111843;28;20207;-62
2023/12/05 03:53:11;;;;;;;35.90;18.10;;;;;;;-4.90;77.54;100633.44;5110894;28;20218;-59
2023/12/05 03:55:40;;;;;;;35.47;18.63;;;;;;;-4.85;78.16;100632.06;5107666;28;20197;-61
2023/12/05 03:58:08;;;;;;;37.13;18.00;;;;;;;-4.83;78.22;100627.13;5117791;28;20720;-59
2023/12/05 04:00:35;;;;;;;32.37;15.27;;;;;;;-4.82;77.59;100629.75;5114025;27;20231;-59
2023/12/05 04:03:03;;;;;;;29.97;16.53;;;;;;;-4.76;78.08;100634.25;5126716;27;20202;-61
2023/12/05 04:05:31;;;;;;;30.83;15.73;;;;;;;-4.72;77.55;100628.63;5112744;27;20204;-61
2023/12/05 04:08:01;;;;;;;30.40;17.07;;;;;;;-4.66;77.70;100629.00;5120859;27;20685;-60
2023/12/05 04:10:29;;;;;;;32.03;16.47;;;;;;;-4.63;77.60;100624.16;5116628;27;20207;-61
2023/12/05 04:12:57;;;;;;;33.10;17.27;;;;;;;-4.63;77.32;100625.00;5112423;27;20213;-59
2023/12/05 04:15:25;;;;;;;25.07;16.10;;;;;;;-4.64;77.41;100625.81;5113008;27;20196;-65
2023/12/05 04:17:53;;;;;;;29.57;16.70;;;;;;;-4.59;77.87;100627.72;5120207;27;20593;-61
2023/12/05 04:20:22;;;;;;;33.67;16.80;;;;;;;-4.53;77.81;100626.41;5119961;27;20207;-62
2023/12/05 04:22:50;;;;;;;27.83;14.97;;;;;;;-4.50;77.62;100634.13;5122734;27;20199;-61
2023/12/05 04:25:19;;;;;;;30.77;16.50;;;;;;;-4.53;77.60;100618.84;5121621;27;20600;-61
2023/12/05 04:27:47;;;;;;;31.33;15.83;;;;;;;-4.54;77.55;100617.13;5116656;27;20208;-60
2023/12/05 04:30:15;;;;;;;26.83;15.23;;;;;;;-4.57;77.08;100616.94;5120803;27;20231;-71
2023/12/05 04:32:43;;;;;;;24.67;13.63;;;;;;;-4.63;77.11;100609.94;5119868;27;20631;-73
2023/12/05 04:35:11;;;;;;;25.67;14.13;;;;;;;-4.72;77.27;100611.03;5115180;27;20287;-71
2023/12/05 04:37:39;;;;;;;28.10;15.27;;;;;;;-4.73;78.26;100609.31;5120016;27;20561;-71
2023/12/05 04:40:09;;;;;;;26.77;13.60;;;;;;;-4.77;78.08;100617.44;5122067;27;20543;-70
2023/12/05 04:42:38;;;;;;;27.73;15.37;;;;;;;-4.82;78.49;100608.75;5117168;27;20573;-60
2023/12/05 04:45:08;;;;;;;27.93;15.03;;;;;;;-4.85;78.38;100609.47;5123439;27;20202;-61
2023/12/05 04:47:36;;;;;;;29.63;15.37;;;;;;;-4.87;78.16;100609.34;5117966;27;20241;-70
2023/12/05 04:50:05;;;;;;;27.60;15.43;;;;;;;-4.90;78.88;100615.84;5116071;27;20284;-61
2023/12/05 04:52:33;;;;;;;29.20;16.03;;;;;;;-4.89;78.72;100610.06;5106130;27;20221;-61
2023/12/05 04:55:01;;;;;;;25.50;14.73;;;;;;;-4.92;78.61;100610.72;5113523;27;20225;-61
2023/12/05 04:57:29;;;;;;;26.57;15.00;;;;;;;-4.94;78.77;100611.41;5115394;27;20200;-60
2023/12/05 04:59:58;;;;;;;30.13;17.03;;;;;;;-4.93;78.79;100605.63;5115763;27;20630;-59
2023/12/05 05:02:26;;;;;;;27.47;16.40;;;;;;;-4.95;79.09;100615.56;5121020;27;20203;-59
2023/12/05 05:04:54;;;;;;;29.27;16.03;;;;;;;-4.95;78.99;100608.03;5120021;27;20210;-67
2023/12/05 05:07:22;;;;;;;28.20;15.80;;;;;;;-4.95;79.14;100607.16;5128601;27;20207;-62
2023/12/05 05:09:51;;;;;;;28.40;14.43;;;;;;;-4.95;79.32;100612.19;5119074;27;20264;-60
2023/12/05 05:12:19;;;;;;;30.10;14.57;;;;;;;-5.00;79.52;100606.91;5106380;27;20690;-60
2023/12/05 05:14:47;;;;;;;21.37;12.63;;;;;;;-5.00;79.56;100606.03;5119230;27;20618;-60
2023/12/05 05:17:16;;;;;;;25.37;13.93;;;;;;;-5.04;79.59;100607.50;5124630;27;20238;-60
2023/12/05 05:19:44;;;;;;;21.83;12.67;;;;;;;-5.09;79.83;100611.38;5113507;27;20629;-62
2023/12/05 05:22:12;;;;;;;26.20;13.63;;;;;;;-5.11;79.99;100600.38;5110304;27;20606;-61
2023/12/05 05:24:40;;;;;;;24.97;13.03;;;;;;;-5.08;79.60;100613.13;5115817;27;20559;-59
2023/12/05 05:27:08;;;;;;;21.03;11.53;;;;;;;-5.14;79.85;100611.09;5125541;27;20206;-64
2023/12/05 05:29:36;;;;;;;20.63;11.17;;;;;;;-5.16;80.04;100616.78;5116974;27;20218;-65
2023/12/05 05:32:05;;;;;;;25.33;14.20;;;;;;;-5.15;79.98;100603.47;5112731;27;20223;-62
2023/12/05 05:34:34;;;;;;;28.63;14.77;;;;;;;-5.15;79.85;100611.03;5121359;27;20223;-63
2023/12/05 05:37:02;;;;;;;24.47;13.60;;;;;;;-5.13;79.86;100612.81;5118021;27;20208;-60
2023/12/05 05:39:30;;;;;;;19.87;10.23;;;;;;;-5.12;79.46;100607.06;5118117;27;20200;-62
2023/12/05 05:41:58;;;;;;;30.03;15.20;;;;;;;-5.13;79.55;100606.94;5121720;27;20207;-70
2023/12/05 05:44:27;;;;;;;31.73;16.83;;;;;;;-5.08;79.66;100604.69;5117895;27;20207;-71
2023/12/05 05:46:55;;;;;;;24.93;13.70;;;;;;;-5.09;79.47;100601.31;5116189;27;20212;-72
2023/12/05 05:49:23;;;;;;;29.93;16.23;;;;;;;-5.07;80.06;100607.31;5102191;27;20292;-73
2023/12/05 05:51:52;;;;;;;25.07;14.63;;;;;;;-5.02;79.78;100605.94;5125119;27;20207;-71
2023/12/05 05:54:21;;;;;;;26.87;15.43;;;;;;;-5.01;79.65;100606.78;5115416;27;20219;-72
2023/12/05 05:56:49;;;;;;;30.43;15.70;;;;;;;-5.03;79.35;100608.38;5115740;27;20208;-72
2023/12/05 05:59:17;;;;;;;25.03;14.60;;;;;;;-5.06;78.89;100604.00;5110805;27;20199;-71
2023/12/05 06:01:47;;;;;;;23.53;13.97;;;;;;;-5.09;79.39;100608.84;5114704;27;20208;-72
2023/12/05 06:04:15;;;;;;;25.23;14.57;;;;;;;-5.10;79.44;100612.16;5123761;27;20696;-70
2023/12/05 06:06:43;;;;;;;27.33;12.40;;;;;;;-5.18;79.26;100599.13;5125449;27;20200;-73
2023/12/05 06:09:14;;;;;;;31.80;13.77;;;;;;;-5.20;79.62;100604.84;5118806;27;20204;-73
2023/12/05 06:11:43;;;;;;;27.50;14.90;;;;;;;-5.22;80.10;100598.88;5118670;27;20206;-71
2023/12/05 06:14:10;;;;;;;28.90;15.23;;;;;;;-5.20;80.34;100600.66;5109281;27;20220;-72
2023/12/05 06:16:38;;;;;;;21.37;10.47;;;;;;;-5.24;79.76;100596.25;5113334;27;20236;-71
2023/12/05 06:19:06;;;;;;;27.40;14.33;;;;;;;-5.26;79.97;100599.47;5105314;27;20252;-72
2023/12/05 06:21:34;;;;;;;28.00;15.00;;;;;;;-5.28;80.14;100601.00;5113595;27;20200;-72
2023/12/05 06:24:02;;;;;;;21.53;10.50;;;;;;;-5.31;80.13;100605.81;5116619;27;20607;-72
2023/12/05 06:26:31;;;;;;;27.80;15.73;;;;;;;-5.33;80.34;100593.19;5118770;27;20745;-73
2023/12/05 06:28:59;;;;;;;23.83;13.00;;;;;;;-5.31;80.34;100606.69;5113376;27;20659;-72
2023/12/05 06:31:28;;;;;;;27.17;15.97;;;;;;;-5.29;80.23;100594.25;5116154;27;20220;-72
2023/12/05 06:33:56;;;;;;;32.37;14.43;;;;;;;-5.29;79.96;100594.25;5120091;27;20712;-65
2023/12/05 06:36:24;;;;;;;25.47;15.40;;;;;;;-5.34;80.45;100591.44;5123140;27;20741;-69
2023/12/05 06:38:52;;;;;;;28.77;15.53;;;;;;;-5.36;80.25;100598.03;5104800;28;20635;-73
2023/12/05 06:41:20;;;;;;;24.90;12.43;;;;;;;-5.40;80.38;100596.97;5117715;27;20207;-74
2023/12/05 06:43:49;;;;;;;25.77;14.97;;;;;;;-5.38;80.78;100600.41;5107583;27;20208;-68
2023/12/05 06:46:17;;;;;;;19.13;10.67;;;;;;;-5.41;80.52;100600.25;5118994;27;20229;-69
2023/12/05 06:48:46;;;;;;;21.77;10.67;;;;;;;-5.41;80.47;100601.91;5114858;27;20222;-68
2023/12/05 06:51:18;;;;;;;19.20;11.33;;;;;;;-5.42;80.50;100606.03;5108414;27;20211;-66
2023/12/05 06:53:46;;;;;;;24.97;12.97;;;;;;;-5.44;80.22;100600.06;5111402;27;20607;-66
2023/12/05 06:56:20;;;;;;;29.23;14.90;;;;;;;-5.41;80.38;100601.91;5118977;27;20191;-64
2023/12/05 06:58:49;;;;;;;23.67;13.30;;;;;;;-5.42;80.33;100598.50;5110572;27;20204;-65
2023/12/05 07:01:18;;;;;;;29.20;15.77;;;;;;;-5.40;80.68;100603.63;5113586;27;20207;-64
2023/12/05 07:03:46;;;;;;;26.07;12.83;;;;;;;-5.37;80.44;100603.84;5112681;27;20662;-64
2023/12/05 07:06:23;;;;;;;27.63;14.93;;;;;;;-5.35;80.78;100595.59;5126117;27;20201;-65
2023/12/05 07:08:51;;;;;;;21.33;12.07;;;;;;;-5.30;80.34;100597.50;5116751;27;20295;-66
2023/12/05 07:11:19;;;;;;;26.23;15.30;;;;;;;-5.29;80.17;100596.75;5099344;28;20210;-64
2023/12/05 07:13:49;;;;;;;27.43;14.80;;;;;;;-5.29;80.27;100581.69;5116606;27;20696;-64
2023/12/05 07:16:18;;;;;;;27.57;14.57;;;;;;;-5.28;80.04;100585.94;5118448;27;20700;-65
2023/12/05 07:18:49;;;;;;;23.67;13.67;;;;;;;-5.27;80.19;100590.16;5112427;27;20219;-64
2023/12/05 07:21:17;;;;;;;27.60;13.33;;;;;;;-5.26;80.29;100584.38;5109946;27;20219;-64
2023/12/05 07:23:47;;;;;;;31.70;15.37;;;;;;;-5.24;80.20;100585.34;5108898;27;20204;-64
2023/12/05 07:26:27;;;;;;;22.47;12.87;;;;;;;-5.22;79.78;100584.66;5119524;27;20618;-64
2023/12/05 07:28:56;;;;;;;27.10;13.33;;;;;;;-5.19;79.84;100586.47;5111724;28;20208;-64
2023/12/05 07:31:24;;;;;;;28.37;13.10;;;;;;;-5.19;79.47;100588.97;5111614;28;20516;-69
2023/12/05 07:33:53;;;;;;;24.43;12.33;;;;;;;-5.24;79.81;100583.69;5109120;28;20228;-66
2023/12/05 07:36:22;;;;;;;22.87;11.80;;;;;;;-5.23;79.52;100584.53;5100028;28;20651;-64
2023/12/05 07:38:50;;;;;;;23.20;12.47;;;;;;;-5.21;79.68;100583.00;5109857;28;20210;-65
2023/12/05 07:41:20;;;;;;;26.47;13.57;;;;;;;-5.21;79.24;100583.00;5106999;28;20205;-65
2023/12/05 07:43:49;;;;;;;23.30;14.13;;;;;;;-5.16;79.39;100584.13;5111658;28;20670;-63
2023/12/05 07:46:19;;;;;;;26.97;13.67;;;;;;;-5.12;79.41;100586.94;5105311;28;20233;-68
2023/12/05 07:48:47;;;;;;;26.60;13.50;;;;;;;-5.07;79.39;100574.66;5111289;28;20199;-65
2023/12/05 07:51:16;;;;;;;27.67;13.77;;;;;;;-5.05;78.99;100574.72;5111447;28;20204;-65
2023/12/05 07:53:49;;;;;;;29.90;14.60;;;;;;;-5.08;78.69;100569.53;5108995;28;20207;-64
2023/12/05 07:56:18;;;;;;;27.67;15.60;;;;;;;-4.97;78.67;100574.44;5102137;28;20690;-65
2023/12/05 07:58:45;;;;;;;28.10;14.30;;;;;;;-4.96;78.75;100571.13;5105049;28;20712;-64
2023/12/05 08:01:14;;;;;;;21.33;12.60;;;;;;;-4.92;78.50;100570.53;5096412;28;20706;-67
2023/12/05 08:03:43;;;;;;;27.80;14.23;;;;;;;-4.86;78.31;100570.00;5114601;28;20198;-68
2023/12/05 08:06:13;;;;;;;29.13;15.20;;;;;;;-4.91;78.35;100559.69;5104606;28;20216;-64
2023/12/05 08:08:40;;;;;;;22.53;10.27;;;;;;;-4.81;77.72;100565.25;5103552;28;20685;-68
2023/12/05 08:11:09;;;;;;;34.97;15.03;;;;;;;-4.76;78.10;100548.78;5104535;28;20201;-67
2023/12/05 08:13:38;;;;;;;26.73;11.00;;;;;;;-4.69;78.03;100545.84;5120159;28;20219;-65
2023/12/05 08:16:07;;;;;;;25.33;13.67;;;;;;;-4.63;77.49;100556.28;5123919;28;20595;-67
2023/12/05 08:18:35;;;;;;;30.73;14.97;;;;;;;-4.56;77.36;100557.50;5123016;28;20280;-66
2023/12/05 08:21:06;;;;;;;29.97;14.30;;;;;;;-4.53;77.06;100563.53;5119441;27;20691;-66
2023/12/05 08:23:34;;;;;;;24.50;14.90;;;;;;;-4.52;76.73;100555.22;5112466;28;20620;-66
2023/12/05 08:26:02;;;;;;;25.23;13.00;;;;;;;-4.46;75.91;100558.06;5109777;28;20300;-64
2023/12/05 08:28:30;;;;;;;27.17;14.63;;;;;;;-4.44;76.46;100563.22;5104220;27;20383;-66
2023/12/05 08:30:58;;;;;;;28.20;15.40;;;;;;;-4.42;76.35;100566.66;5116633;28;20260;-65
2023/12/05 08:33:26;;;;;;;29.90;16.13;;;;;;;-4.44;76.18;100561.56;5119868;28;20205;-65
2023/12/05 08:35:54;;;;;;;20.80;11.90;;;;;;;-4.41;75.77;100564.25;5109490;28;20200;-65
2023/12/05 08:38:24;;;;;;;30.30;17.37;;;;;;;-4.42;75.17;100572.59;5108321;28;20620;-65
2023/12/05 08:40:52;;;;;;;31.70;16.10;;;;;;;-4.47;75.11;100575.59;5102236;28;20247;-64
2023/12/05 08:43:20;;;;;;;29.43;14.13;;;;;;;-4.49;75.40;100572.13;5098285;28;20200;-64
2023/12/05 08:45:48;;;;;;;29.87;16.30;;;;;;;-4.42;75.42;100565.03;5107208;27;20206;-65
2023/12/05 08:48:16;;;;;;;27.90;15.60;;;;;;;-4.39;75.62;100571.88;5114960;27;20734;-64
2023/12/05 08:50:44;;;;;;;24.23;15.23;;;;;;;-4.41;74.88;100569.28;5095955;27;20254;-65
2023/12/05 08:53:13;;;;;;;25.40;15.47;;;;;;;-4.43;75.24;100567.44;5114441;27;20569;-66
2023/12/05 08:55:43;;;;;;;24.30;11.87;;;;;;;-4.37;75.21;100568.66;5107424;27;20207;-66
2023/12/05 08:58:11;;;;;;;30.83;16.50;;;;;;;-4.35;75.11;100562.84;5114509;27;20202;-65
2023/12/05 09:00:39;;;;;;;33.53;17.93;;;;;;;-4.28;75.00;100573.34;5106423;27;20246;-65
2023/12/05 09:03:07;;;;;;;25.90;12.20;;;;;;;-4.19;75.21;100571.34;5112451;27;20204;-65
2023/12/05 09:05:36;;;;;;;27.67;15.40;;;;;;;-4.14;74.36;100564.03;5104747;27;20635;-64
2023/12/05 09:08:04;;;;;;;33.80;16.97;;;;;;;-4.09;74.37;100557.59;5116318;27;20216;-67
2023/12/05 09:10:33;;;;;;;26.57;14.53;;;;;;;-4.04;74.06;100555.38;5115815;27;20259;-65
2023/12/05 09:13:03;;;;;;;29.73;16.57;;;;;;;-4.01;73.41;100556.41;5117408;27;20200;-65
2023/12/05 09:15:34;;;;;;;22.80;14.23;;;;;;;-3.98;73.36;100546.47;5098234;27;20216;-64
2023/12/05 09:18:05;;;;;;;31.07;15.67;;;;;;;-4.00;73.10;100548.06;5100516;27;20282;-66
2023/12/05 09:20:33;;;;;;;33.87;17.83;;;;;;;-3.97;73.94;100537.31;5115426;27;20261;-65
2023/12/05 09:23:02;;;;;;;34.47;18.43;;;;;;;-3.85;74.13;100535.44;5117836;27;20206;-67
2023/12/05 09:25:30;;;;;;;28.60;15.73;;;;;;;-3.75;73.38;100531.78;5098874;27;20678;-66
2023/12/05 09:27:58;;;;;;;33.37;17.10;;;;;;;-3.74;72.32;100525.94;5122961;27;20229;-67
2023/12/05 09:30:28;;;;;;;24.10;13.30;;;;;;;-3.77;72.22;100525.78;5108625;27;20204;-65
2023/12/05 09:32:56;;;;;;;30.23;17.00;;;;;;;-3.70;72.77;100530.34;5112757;27;20212;-68
2023/12/05 09:35:24;;;;;;;33.27;17.07;;;;;;;-3.72;72.67;100535.31;5101852;27;20217;-63
2023/12/05 09:37:52;;;;;;;33.47;16.87;;;;;;;-3.71;72.77;100521.94;5111926;27;21063;-65
2023/12/05 09:40:20;;;;;;;29.53;16.77;;;;;;;-3.65;72.23;100523.91;5110597;27;20660;-65
2023/12/05 09:42:49;;;;;;;31.47;17.07;;;;;;;-3.58;72.12;100528.47;5112545;27;20256;-64
2023/12/05 09:45:17;;;;;;;31.00;15.47;;;;;;;-3.61;71.86;100518.25;5105977;27;20225;-63
2023/12/05 09:47:48;;;;;;;29.53;15.57;;;;;;;-3.57;71.96;100540.31;5103277;27;20627;-66
2023/12/05 09:50:18;;;;;;;28.00;15.70;;;;;;;-3.58;71.98;100527.63;5104882;27;20204;-67
2023/12/05 09:52:47;;;;;;;27.17;13.70;;;;;;;-3.58;71.31;100531.00;5104893;27;20296;-64
2023/12/05 09:55:16;;;;;;;29.37;17.27;;;;;;;-3.51;71.74;100529.66;5103010;27;20215;-68
2023/12/05 09:57:47;;;;;;;31.47;16.77;;;;;;;-3.53;71.23;100524.56;5119447;27;20271;-65
2023/12/05 10:00:16;;;;;;;32.97;16.73;;;;;;;-3.52;71.47;100523.78;5117494;27;20690;-66
2023/12/05 10:02:47;;;;;;;30.03;15.00;;;;;;;-3.42;71.79;100526.00;5106735;27;20565;-69
2023/12/05 10:05:18;;;;;;;29.13;14.53;;;;;;;-3.40;71.74;100533.63;5118066;27;20204;-65
2023/12/05 10:07:47;;;;;;;30.03;17.30;;;;;;;-3.38;71.10;100526.16;5108626;27;20709;-66
2023/12/05 10:10:16;;;;;;;24.73;13.90;;;;;;;-3.31;70.73;100524.03;5111386;27;20200;-67
2023/12/05 10:12:45;;;;;;;32.70;16.93;;;;;;;-3.25;71.28;100511.72;5116199;27;20835;-64
2023/12/05 10:15:13;;;;;;;30.00;16.60;;;;;;;-3.17;71.03;100515.53;5113476;27;20220;-64
2023/12/05 10:17:41;;;;;;;23.90;14.43;;;;;;;-3.06;70.52;100505.09;5116835;27;20241;-63
2023/12/05 10:20:11;;;;;;;35.23;16.53;;;;;;;-3.08;69.96;100507.56;5109812;27;20212;-64
2023/12/05 10:22:41;;;;;;;27.10;13.87;;;;;;;-3.04;69.86;100503.53;5106267;27;20606;-65
2023/12/05 10:25:09;;;;;;;29.17;16.93;;;;;;;-3.00;70.22;100505.41;5105497;27;20201;-68
2023/12/05 10:27:37;;;;;;;33.37;17.50;;;;;;;-3.03;69.32;100508.63;5119369;27;20199;-66
2023/12/05 10:30:10;;;;;;;30.23;13.73;;;;;;;-3.01;69.90;100499.50;5111948;27;20628;-68
2023/12/05 10:32:44;;;;;;;25.50;13.00;;;;;;;-3.06;69.20;100500.91;5111832;27;20568;-66
2023/12/05 10:35:12;;;;;;;30.33;14.77;;;;;;;-3.08;69.96;100507.56;5112333;27;20231;-66
2023/12/05 10:37:43;;;;;;;32.03;16.13;;;;;;;-3.09;69.78;100502.41;5109324;27;20230;-67
2023/12/05 10:40:12;;;;;;;31.07;15.97;;;;;;;-3.09;70.47;100488.19;5108809;27;20787;-69
2023/12/05 10:42:40;;;;;;;35.03;17.30;;;;;;;-3.02;70.14;100487.72;5101554;27;20226;-63
2023/12/05 10:45:08;;;;;;;33.70;16.70;;;;;;;-2.98;70.04;100489.59;5110500;27;20555;-64
2023/12/05 10:47:36;;;;;;;26.53;15.57;;;;;;;-2.89;69.88;100480.75;5110319;27;20204;-66
2023/12/05 10:50:05;;;;;;;32.90;17.77;;;;;;;-2.84;69.81;100465.03;5104351;27;20587;-67
2023/12/05 10:52:34;;;;;;;24.77;15.97;;;;;;;-2.73;69.24;100468.94;5113884;27;20253;-66
2023/12/05 10:55:03;;;;;;;27.13;14.40;;;;;;;-2.71;68.38;100469.03;5109130;27;20208;-65
2023/12/05 10:57:34;;;;;;;27.83;16.20;;;;;;;-2.65;68.88;100469.34;5116189;27;20646;-65
2023/12/05 11:00:05;;;;;;;29.17;15.97;;;;;;;-2.67;68.49;100466.72;5112092;27;20795;-63
2023/12/05 11:02:36;;;;;;;25.47;14.97;;;;;;;-2.65;68.79;100466.81;5106831;27;20234;-65
2023/12/05 11:05:05;;;;;;;25.30;12.87;;;;;;;-2.64;68.19;100471.06;5103906;27;20235;-65
2023/12/05 11:07:33;;;;;;;27.43;15.77;;;;;;;-2.62;68.75;100466.94;5113088;27;20264;-70
2023/12/05 11:10:03;;;;;;;30.60;17.27;;;;;;;-2.55;68.73;100466.44;5102777;27;20195;-63
2023/12/05 11:12:33;;;;;;;31.27;15.90;;;;;;;-2.50;68.45;100462.50;5100949;27;20292;-65
2023/12/05 11:15:02;;;;;;;25.23;15.73;;;;;;;-2.54;68.21;100459.72;5111623;27;20231;-65
2023/12/05 11:17:37;;;;;;;29.57;15.93;;;;;;;-2.57;68.61;100463.00;5114394;27;20231;-64